Time;durP1;ratioP1;P1;durP2;ratioP2;P2;SDS_P1;SDS_P2;PMS_P1;PMS_P2;Temp;Humidity;BMP_temperature;BMP_pressure;BME280_temperature;BME280_humidity;BME280_pressure;Samples;Min_cycle;Max_cycle;Signal;HPM_P1;HPM_P2
2024/03/26 00:00:40;;;;;;;;;;;5.10;99.90;;;;;;5017505;28;19949;-77
2024/03/26 00:03:07;;;;;;;;;;;5.10;99.90;;;;;;5001137;28;20027;-77
2024/03/26 00:05:34;;;;;;;;;;;5.10;99.90;;;;;;5011016;28;20090;-78
2024/03/26 00:08:00;;;;;;;;;;;5.10;99.90;;;;;;5020679;28;19913;-77
2024/03/26 00:10:26;;;;;;;;;;;5.10;99.90;;;;;;5037038;28;20333;-77
2024/03/26 00:12:51;;;;;;;;;;;5.00;99.90;;;;;;5037850;28;19927;-77
2024/03/26 00:15:17;;;;;;;;;;;5.10;99.90;;;;;;5050869;28;19974;-77
2024/03/26 00:17:43;;;;;;;;;;;5.00;99.90;;;;;;5057103;28;19920;-78
2024/03/26 00:20:09;;;;;;;;;;;5.00;99.90;;;;;;5028201;28;19927;-77
2024/03/26 00:22:35;;;;;;;;;;;5.00;99.90;;;;;;5036946;28;19923;-77
2024/03/26 00:25:00;;;;;;;;;;;5.00;99.90;;;;;;5036925;28;20325;-77
2024/03/26 00:27:26;;;;;;;;;;;5.00;99.90;;;;;;5020686;28;19921;-77
2024/03/26 00:29:51;;;;;;;;;;;5.00;99.90;;;;;;5036790;28;19928;-77
2024/03/26 00:32:17;;;;;;;;;;;4.90;99.90;;;;;;5020854;28;19913;-77
2024/03/26 00:34:42;;;;;;;;;;;4.90;99.90;;;;;;5003744;28;19927;-77
2024/03/26 00:37:08;;;;;;;;;;;4.90;99.90;;;;;;5020415;28;19914;-77
2024/03/26 00:39:34;;;;;;;;;;;4.90;99.90;;;;;;5020355;28;19917;-78
2024/03/26 00:41:59;;;;;;;;;;;4.90;99.90;;;;;;5032268;28;20420;-77
2024/03/26 00:44:25;;;;;;;;;;;4.90;99.90;;;;;;5038741;28;20206;-77
2024/03/26 00:46:51;;;;;;;;;;;4.80;99.90;;;;;;5020555;28;20325;-77
2024/03/26 00:49:17;;;;;;;;;;;4.80;99.90;;;;;;5032275;28;19933;-77
2024/03/26 00:51:47;;;;;;;;;;;4.70;99.90;;;;;;5016900;28;19917;-77
2024/03/26 00:54:12;;;;;;;;;;;4.60;99.90;;;;;;5025775;28;19920;-77
2024/03/26 00:56:39;;;;;;;;;;;4.60;99.90;;;;;;5020166;28;20241;-77
2024/03/26 00:59:05;;;;;;;;;;;4.50;99.90;;;;;;5028938;28;19927;-77
2024/03/26 01:01:30;;;;;;;;;;;4.40;99.90;;;;;;5033970;28;19913;-77
2024/03/26 01:03:56;;;;;;;;;;;4.30;99.90;;;;;;5015890;28;19924;-77
2024/03/26 01:06:22;;;;;;;;;;;4.30;99.90;;;;;;5015711;28;19917;-77
2024/03/26 01:08:47;;;;;;;;;;;4.30;99.90;;;;;;5019049;28;19917;-78
2024/03/26 01:11:13;;;;;;;;;;;4.00;99.90;;;;;;5035518;28;20229;-77
2024/03/26 01:13:41;;;;;;;;;;;4.30;99.90;;;;;;5019437;28;20219;-77
2024/03/26 01:16:07;;;;;;;;;;;4.30;99.90;;;;;;5003052;28;19913;-77
2024/03/26 01:18:33;;;;;;;;;;;4.20;99.90;;;;;;5036300;28;20198;-77
2024/03/26 01:20:59;;;;;;;;;;;4.30;99.90;;;;;;5036306;28;19917;-77
2024/03/26 01:23:24;;;;;;;;;;;4.30;99.90;;;;;;5018673;28;19920;-78
2024/03/26 01:25:50;;;;;;;;;;;4.30;99.90;;;;;;5022039;28;19913;-78
2024/03/26 01:28:15;;;;;;;;;;;4.30;99.90;;;;;;5035582;28;19919;-77
2024/03/26 01:30:41;;;;;;;;;;;4.30;99.90;;;;;;5019449;28;19921;-77
2024/03/26 01:33:07;;;;;;;;;;;4.30;99.90;;;;;;5017461;28;19913;-77
2024/03/26 01:35:32;;;;;;;;;;;4.40;99.90;;;;;;5017264;28;19917;-77
2024/03/26 01:37:59;;;;;;;;;;;4.40;99.90;;;;;;5002546;28;20284;-77
2024/03/26 01:40:25;;;;;;;;;;;4.40;99.90;;;;;;5038565;28;19912;-78
2024/03/26 01:42:51;;;;;;;;;;;4.40;99.90;;;;;;5009218;28;19932;-78
2024/03/26 01:45:16;;;;;;;;;;;4.40;99.90;;;;;;5018862;28;19963;-78
2024/03/26 01:47:43;;;;;;;;;;;4.40;99.90;;;;;;5037173;28;19996;-77
2024/03/26 01:50:13;;;;;;;;;;;4.40;99.90;;;;;;5018759;28;20000;-78
2024/03/26 01:52:38;;;;;;;;;;;4.40;99.90;;;;;;5022892;28;19913;-78
2024/03/26 01:55:07;;;;;;;;;;;4.40;99.90;;;;;;5035056;28;19920;-78
2024/03/26 01:57:36;;;;;;;;;;;4.50;99.90;;;;;;5047372;28;19916;-78
2024/03/26 02:00:02;;;;;;;;;;;4.50;99.90;;;;;;5041209;28;19946;-77
2024/03/26 02:02:27;;;;;;;;;;;4.50;99.90;;;;;;5019418;28;19916;-77
2024/03/26 02:04:53;;;;;;;;;;;4.60;99.90;;;;;;5031543;28;20664;-78
2024/03/26 02:07:19;;;;;;;;;;;4.60;99.90;;;;;;5018677;28;19925;-78
2024/03/26 02:09:47;;;;;;;;;;;4.60;99.90;;;;;;5029641;28;19928;-77
2024/03/26 02:12:12;;;;;;;;;;;4.70;99.90;;;;;;5038790;28;19917;-77
2024/03/26 02:14:38;;;;;;;;;;;4.70;99.90;;;;;;5034962;28;19936;-78
2024/03/26 02:17:04;;;;;;;;;;;4.80;99.90;;;;;;5032950;28;19928;-78
2024/03/26 02:19:32;;;;;;;;;;;4.80;99.90;;;;;;5033959;28;19968;-78
2024/03/26 02:21:57;;;;;;;;;;;4.80;99.90;;;;;;5003323;28;20351;-78
2024/03/26 02:24:23;;;;;;;;;;;4.90;99.90;;;;;;5034494;28;20003;-78
2024/03/26 02:26:49;;;;;;;;;;;4.90;99.90;;;;;;5035543;28;19975;-78
2024/03/26 02:29:14;;;;;;;;;;;4.90;99.90;;;;;;5017352;28;20218;-78
2024/03/26 02:31:40;;;;;;;;;;;4.80;99.90;;;;;;5018128;28;19916;-78
2024/03/26 02:34:06;;;;;;;;;;;4.80;99.90;;;;;;5001576;28;19913;-78
2024/03/26 02:36:31;;;;;;;;;;;4.80;99.90;;;;;;5018603;28;19921;-78
2024/03/26 02:38:57;;;;;;;;;;;4.80;99.90;;;;;;5051268;28;20276;-78
2024/03/26 02:41:25;;;;;;;;;;;4.70;99.90;;;;;;5034633;28;20000;-78
2024/03/26 02:43:50;;;;;;;;;;;4.70;99.90;;;;;;5031527;28;19913;-77
2024/03/26 02:46:16;;;;;;;;;;;4.70;99.90;;;;;;5018507;28;20013;-78
2024/03/26 02:48:42;;;;;;;;;;;4.60;99.90;;;;;;5013880;28;20012;-77
2024/03/26 02:51:07;;;;;;;;;;;4.60;99.90;;;;;;5033834;28;19917;-77
2024/03/26 02:53:33;;;;;;;;;;;4.50;99.90;;;;;;5017836;28;19917;-77
2024/03/26 02:55:58;;;;;;;;;;;4.50;99.90;;;;;;5034558;28;20374;-78
2024/03/26 02:58:24;;;;;;;;;;;4.50;99.90;;;;;;5039639;28;19971;-77
2024/03/26 03:00:50;;;;;;;;;;;4.50;99.90;;;;;;5038176;28;20268;-78
2024/03/26 03:03:15;;;;;;;;;;;4.50;99.90;;;;;;5027149;28;19913;-77
2024/03/26 03:05:41;;;;;;;;;;;4.40;99.90;;;;;;5018035;28;19916;-78
2024/03/26 03:08:07;;;;;;;;;;;4.40;99.90;;;;;;5034880;28;20542;-78
2024/03/26 03:10:32;;;;;;;;;;;4.40;99.90;;;;;;5000535;28;19960;-78
2024/03/26 03:12:58;;;;;;;;;;;4.40;99.90;;;;;;5036232;28;20230;-78
2024/03/26 03:15:24;;;;;;;;;;;4.30;99.90;;;;;;5002694;28;19920;-78
2024/03/26 03:17:49;;;;;;;;;;;4.30;99.90;;;;;;4986261;28;19917;-77
2024/03/26 03:20:16;;;;;;;;;;;4.30;99.90;;;;;;5002659;28;19913;-77
2024/03/26 03:22:42;;;;;;;;;;;4.30;99.90;;;;;;5002626;28;19918;-77
2024/03/26 03:25:07;;;;;;;;;;;4.20;99.90;;;;;;4986100;28;19924;-77
2024/03/26 03:27:33;;;;;;;;;;;4.20;99.90;;;;;;5009003;28;19920;-77
2024/03/26 03:29:59;;;;;;;;;;;4.20;99.90;;;;;;5019637;28;20011;-77
2024/03/26 03:32:25;;;;;;;;;;;4.20;99.90;;;;;;5002128;28;19917;-77
2024/03/26 03:34:51;;;;;;;;;;;4.20;99.90;;;;;;5001703;28;19925;-77
2024/03/26 03:37:17;;;;;;;;;;;4.10;99.90;;;;;;4985477;28;19921;-77
2024/03/26 03:39:44;;;;;;;;;;;4.10;99.90;;;;;;5011431;28;20293;-77
2024/03/26 03:42:09;;;;;;;;;;;4.10;99.90;;;;;;5001903;28;20000;-77
2024/03/26 03:44:35;;;;;;;;;;;4.10;99.90;;;;;;5001879;28;20325;-77
2024/03/26 03:47:05;;;;;;;;;;;4.10;99.90;;;;;;5002004;28;19917;-77
2024/03/26 03:49:30;;;;;;;;;;;4.10;99.90;;;;;;4985624;28;19921;-77
2024/03/26 03:51:56;;;;;;;;;;;4.10;99.90;;;;;;5002498;28;19988;-77
2024/03/26 03:54:24;;;;;;;;;;;4.00;99.90;;;;;;5017969;28;19913;-77
2024/03/26 03:56:49;;;;;;;;;;;4.10;99.90;;;;;;5001997;28;19914;-77
2024/03/26 03:59:15;;;;;;;;;;;4.10;99.90;;;;;;5001816;28;19963;-77
2024/03/26 04:01:40;;;;;;;;;;;4.10;99.90;;;;;;5001585;28;20340;-77
2024/03/26 04:04:06;;;;;;;;;;;4.00;99.90;;;;;;4984689;28;19924;-77
2024/03/26 04:06:33;;;;;;;;;;;4.00;99.90;;;;;;5018310;28;20056;-77
2024/03/26 04:08:58;;;;;;;;;;;4.00;99.90;;;;;;5000901;28;19924;-77
2024/03/26 04:11:24;;;;;;;;;;;4.00;99.90;;;;;;5032441;28;20675;-77
2024/03/26 04:13:51;;;;;;;;;;;3.90;99.90;;;;;;5021110;28;20411;-77
2024/03/26 04:16:16;;;;;;;;;;;3.90;99.90;;;;;;5012132;28;19917;-77
2024/03/26 04:18:42;;;;;;;;;;;3.80;99.90;;;;;;5020913;28;20248;-77
2024/03/26 04:21:08;;;;;;;;;;;3.80;99.90;;;;;;5016796;28;19932;-77
2024/03/26 04:23:33;;;;;;;;;;;3.80;99.90;;;;;;4990947;28;19917;-77
2024/03/26 04:25:59;;;;;;;;;;;3.80;99.90;;;;;;5004193;28;20329;-77
2024/03/26 04:28:26;;;;;;;;;;;3.80;99.90;;;;;;5003778;28;20326;-77
2024/03/26 04:30:51;;;;;;;;;;;3.80;99.90;;;;;;5003589;28;19952;-77
2024/03/26 04:33:17;;;;;;;;;;;3.70;99.90;;;;;;5036652;28;20313;-77
2024/03/26 04:35:46;;;;;;;;;;;3.70;99.90;;;;;;5019358;28;19912;-77
2024/03/26 04:38:12;;;;;;;;;;;3.70;99.90;;;;;;5018884;28;19917;-77
2024/03/26 04:40:38;;;;;;;;;;;3.70;99.90;;;;;;5037557;28;19925;-78
2024/03/26 04:43:06;;;;;;;;;;;3.70;99.90;;;;;;5034199;28;19913;-78
2024/03/26 04:45:32;;;;;;;;;;;3.70;99.90;;;;;;5019166;28;20006;-77
2024/03/26 04:47:58;;;;;;;;;;;3.70;99.90;;;;;;5036254;28;20369;-77
2024/03/26 04:50:23;;;;;;;;;;;3.70;99.90;;;;;;5032593;28;19921;-77
2024/03/26 04:52:49;;;;;;;;;;;3.70;99.90;;;;;;5034846;28;19917;-77
2024/03/26 04:55:16;;;;;;;;;;;3.70;99.90;;;;;;5035711;28;19966;-77
2024/03/26 04:57:42;;;;;;;;;;;3.70;99.90;;;;;;5018884;28;19924;-77
2024/03/26 05:00:12;;;;;;;;;;;3.70;99.90;;;;;;5035544;28;19960;-77
2024/03/26 05:02:41;;;;;;;;;;;3.60;99.90;;;;;;5018818;28;19924;-77
2024/03/26 05:05:07;;;;;;;;;;;3.50;99.90;;;;;;5017964;28;19928;-77
2024/03/26 05:07:32;;;;;;;;;;;3.60;99.90;;;;;;5018227;28;19917;-77
2024/03/26 05:09:58;;;;;;;;;;;3.60;99.90;;;;;;5018560;28;20405;-78
2024/03/26 05:12:24;;;;;;;;;;;3.60;99.90;;;;;;5009848;28;19979;-77
2024/03/26 05:14:52;;;;;;;;;;;3.60;99.90;;;;;;4991472;28;20651;-78
2024/03/26 05:17:20;;;;;;;;;;;3.60;99.90;;;;;;5027054;28;19913;-78
2024/03/26 05:19:47;;;;;;;;;;;3.60;99.90;;;;;;5030047;28;19925;-77
2024/03/26 05:22:13;;;;;;;;;;;3.60;99.90;;;;;;4984825;28;19940;-77
2024/03/26 05:24:39;;;;;;;;;;;3.60;99.90;;;;;;4998699;28;19936;-78
2024/03/26 05:27:05;;;;;;;;;;;3.60;99.90;;;;;;5015479;28;19917;-78
2024/03/26 05:29:31;;;;;;;;;;;3.60;99.90;;;;;;5007293;28;19931;-78
2024/03/26 05:31:57;;;;;;;;;;;3.70;99.90;;;;;;5017786;28;19918;-78
2024/03/26 05:34:23;;;;;;;;;;;3.70;99.90;;;;;;5028048;28;20000;-78
2024/03/26 05:36:49;;;;;;;;;;;3.70;99.90;;;;;;4999246;28;20319;-78
2024/03/26 05:39:15;;;;;;;;;;;3.70;99.90;;;;;;5003343;28;19917;-78
2024/03/26 05:41:41;;;;;;;;;;;3.70;99.90;;;;;;5014584;28;19980;-78
2024/03/26 05:44:06;;;;;;;;;;;3.70;99.90;;;;;;4991812;28;20363;-77
2024/03/26 05:46:32;;;;;;;;;;;3.70;99.90;;;;;;5002253;28;19913;-77
2024/03/26 05:48:58;;;;;;;;;;;3.70;99.90;;;;;;4988824;28;19999;-77
2024/03/26 05:51:23;;;;;;;;;;;3.70;99.90;;;;;;4998297;28;20068;-77
2024/03/26 05:53:50;;;;;;;;;;;3.80;99.90;;;;;;4994585;28;19914;-78
2024/03/26 05:56:16;;;;;;;;;;;3.80;99.90;;;;;;4991528;28;19924;-78
2024/03/26 05:58:41;;;;;;;;;;;3.80;99.90;;;;;;4999125;28;19924;-79
2024/03/26 06:01:08;;;;;;;;;;;3.90;99.90;;;;;;4980252;28;20246;-78
2024/03/26 06:03:33;;;;;;;;;;;3.90;99.90;;;;;;4995845;28;19976;-78
2024/03/26 06:05:59;;;;;;;;;;;3.90;99.90;;;;;;4995901;28;19921;-78
2024/03/26 06:08:25;;;;;;;;;;;4.00;99.90;;;;;;4999479;28;20021;-78
2024/03/26 06:10:51;;;;;;;;;;;3.90;99.90;;;;;;5025305;28;19921;-78
2024/03/26 06:13:16;;;;;;;;;;;3.90;99.90;;;;;;5031983;28;19944;-78
2024/03/26 06:15:42;;;;;;;;;;;4.00;99.90;;;;;;4993370;28;20361;-78
2024/03/26 06:18:07;;;;;;;;;;;4.00;99.90;;;;;;5018689;28;20353;-79
2024/03/26 06:20:33;;;;;;;;;;;4.00;99.90;;;;;;5019150;28;20321;-79
2024/03/26 06:22:59;;;;;;;;;;;4.00;99.90;;;;;;4988785;28;20353;-79
2024/03/26 06:25:25;;;;;;;;;;;4.10;99.90;;;;;;4998742;28;19914;-78
2024/03/26 06:27:52;;;;;;;;;;;4.10;99.90;;;;;;4978974;28;20280;-79
2024/03/26 06:30:18;;;;;;;;;;;4.10;99.90;;;;;;5003051;28;19925;-79
2024/03/26 06:32:44;;;;;;;;;;;4.10;99.90;;;;;;4998757;28;19913;-79
2024/03/26 06:35:11;;;;;;;;;;;4.20;99.90;;;;;;5014708;28;20012;-78
2024/03/26 06:37:37;;;;;;;;;;;4.20;99.90;;;;;;4982389;28;19972;-79
2024/03/26 06:40:03;;;;;;;;;;;4.20;99.90;;;;;;5017459;28;19921;-78
2024/03/26 06:42:28;;;;;;;;;;;4.20;99.90;;;;;;5014125;28;20011;-78
2024/03/26 06:44:54;;;;;;;;;;;4.30;99.90;;;;;;5009364;28;20000;-78
2024/03/26 06:47:20;;;;;;;;;;;4.30;99.90;;;;;;4997790;28;20473;-79
2024/03/26 06:49:46;;;;;;;;;;;4.30;99.90;;;;;;5000714;28;19928;-79
2024/03/26 06:52:12;;;;;;;;;;;4.40;99.90;;;;;;5008664;28;20020;-78
2024/03/26 06:54:38;;;;;;;;;;;4.40;99.90;;;;;;4978858;28;20282;-79
2024/03/26 06:57:04;;;;;;;;;;;4.50;99.90;;;;;;5004165;28;19956;-79
2024/03/26 06:59:30;;;;;;;;;;;4.50;99.90;;;;;;4997492;28;19914;-79
2024/03/26 07:01:59;;;;;;;;;;;4.60;99.90;;;;;;4987130;28;19967;-79
2024/03/26 07:04:25;;;;;;;;;;;4.60;99.90;;;;;;4986855;28;19918;-78
2024/03/26 07:06:51;;;;;;;;;;;4.60;99.90;;;;;;4997557;28;20004;-79
2024/03/26 07:09:17;;;;;;;;;;;4.70;99.90;;;;;;4997229;28;19914;-76
2024/03/26 07:11:43;;;;;;;;;;;4.80;99.90;;;;;;5033424;28;19932;-76
2024/03/26 07:14:08;;;;;;;;;;;4.80;99.90;;;;;;5034205;28;19917;-76
2024/03/26 07:16:34;;;;;;;;;;;4.90;99.90;;;;;;5007995;28;20054;-76
2024/03/26 07:19:00;;;;;;;;;;;5.00;99.90;;;;;;5015318;28;19979;-76
2024/03/26 07:21:26;;;;;;;;;;;5.00;99.90;;;;;;5012552;28;19917;-76
2024/03/26 07:23:53;;;;;;;;;;;5.10;99.90;;;;;;5020947;28;19924;-76
2024/03/26 07:26:19;;;;;;;;;;;5.20;99.90;;;;;;5001645;28;19980;-76
2024/03/26 07:28:45;;;;;;;;;;;5.20;99.90;;;;;;5018388;28;19913;-76
2024/03/26 07:31:11;;;;;;;;;;;5.30;99.90;;;;;;5017782;28;20003;-77
2024/03/26 07:33:36;;;;;;;;;;;5.30;99.90;;;;;;5018224;28;19948;-77
2024/03/26 07:36:02;;;;;;;;;;;5.50;99.90;;;;;;5017010;28;19914;-76
2024/03/26 07:38:28;;;;;;;;;;;5.50;99.90;;;;;;5017043;28;19916;-77
2024/03/26 07:41:00;;;;;;;;;;;5.70;99.90;;;;;;4991934;28;20273;-76
2024/03/26 07:43:26;;;;;;;;;;;5.70;99.90;;;;;;5045279;28;20042;-77
2024/03/26 07:45:52;;;;;;;;;;;5.80;99.90;;;;;;5020246;28;19988;-77
2024/03/26 07:48:19;;;;;;;;;;;5.90;99.90;;;;;;5034762;28;19917;-77
2024/03/26 07:50:45;;;;;;;;;;;6.00;99.90;;;;;;5002473;28;19921;-77
2024/03/26 07:53:11;;;;;;;;;;;6.20;99.90;;;;;;5034090;28;19913;-77
2024/03/26 07:55:37;;;;;;;;;;;6.10;99.90;;;;;;5017515;28;19920;-76
2024/03/26 07:58:04;;;;;;;;;;;6.20;99.90;;;;;;5017983;28;20003;-75
2024/03/26 08:00:31;;;;;;;;;;;6.30;99.90;;;;;;5010619;28;19975;-76
2024/03/26 08:02:59;;;;;;;;;;;6.40;99.90;;;;;;5005802;28;19959;-76
2024/03/26 08:05:25;;;;;;;;;;;6.50;99.90;;;;;;5004616;28;20017;-77
2024/03/26 08:07:55;;;;;;;;;;;6.60;99.90;;;;;;5020953;28;20000;-77
2024/03/26 08:10:21;;;;;;;;;;;6.60;99.90;;;;;;5004098;28;20261;-77
2024/03/26 08:12:47;;;;;;;;;;;6.60;99.90;;;;;;5021333;28;19914;-76
2024/03/26 08:15:13;;;;;;;;;;;6.70;99.90;;;;;;5002909;28;19917;-77
2024/03/26 08:17:42;;;;;;;;;;;6.70;99.90;;;;;;5000722;28;20342;-77
2024/03/26 08:20:09;;;;;;;;;;;6.80;99.90;;;;;;4984474;28;19953;-77
2024/03/26 08:22:38;;;;;;;;;;;6.90;99.90;;;;;;5005639;28;19924;-77
2024/03/26 08:25:05;;;;;;;;;;;7.20;99.90;;;;;;5016933;28;20333;-75
2024/03/26 08:27:31;;;;;;;;;;;7.40;99.90;;;;;;4999901;28;19913;-75
2024/03/26 08:29:58;;;;;;;;;;;7.60;99.90;;;;;;5000545;28;20353;-76
2024/03/26 08:32:23;;;;;;;;;;;7.70;99.90;;;;;;5032809;28;20648;-76
2024/03/26 08:34:49;;;;;;;;;;;7.90;99.90;;;;;;4983285;28;19996;-76
2024/03/26 08:37:15;;;;;;;;;;;8.00;99.90;;;;;;5000329;28;19944;-76
2024/03/26 08:39:40;;;;;;;;;;;8.10;99.90;;;;;;5032764;28;19925;-76
2024/03/26 08:42:06;;;;;;;;;;;8.20;99.90;;;;;;5002389;28;20238;-76
2024/03/26 08:44:32;;;;;;;;;;;8.30;99.90;;;;;;4979606;28;19921;-76
2024/03/26 08:46:58;;;;;;;;;;;8.40;99.90;;;;;;5016421;28;20346;-76
2024/03/26 08:49:24;;;;;;;;;;;8.60;99.90;;;;;;5000098;28;20329;-76
2024/03/26 08:51:49;;;;;;;;;;;8.70;99.90;;;;;;5000184;28;19913;-76
2024/03/26 08:54:15;;;;;;;;;;;8.70;99.90;;;;;;5017160;28;20031;-76
2024/03/26 08:56:40;;;;;;;;;;;8.80;99.90;;;;;;4983905;28;20012;-76
2024/03/26 08:59:06;;;;;;;;;;;9.00;99.90;;;;;;4987436;28;20005;-76
2024/03/26 09:01:32;;;;;;;;;;;9.10;99.90;;;;;;4997711;28;20008;-76
2024/03/26 09:03:57;;;;;;;;;;;9.10;99.90;;;;;;5001293;28;19983;-78
2024/03/26 09:06:24;;;;;;;;;;;9.20;99.90;;;;;;5000261;28;19913;-78
2024/03/26 09:08:50;;;;;;;;;;;9.30;99.90;;;;;;5014258;28;19924;-78
2024/03/26 09:11:16;;;;;;;;;;;9.40;99.90;;;;;;5021940;28;19926;-77
2024/03/26 09:13:43;;;;;;;;;;;9.50;99.90;;;;;;4999303;28;19918;-77
2024/03/26 09:16:09;;;;;;;;;;;9.60;99.90;;;;;;4999564;28;19913;-77
2024/03/26 09:18:34;;;;;;;;;;;9.70;99.90;;;;;;5031688;28;19999;-77
2024/03/26 09:21:00;;;;;;;;;;;9.80;99.90;;;;;;4998891;28;19928;-77
2024/03/26 09:23:26;;;;;;;;;;;9.90;99.90;;;;;;5011137;28;19917;-77
2024/03/26 09:25:53;;;;;;;;;;;10.00;99.90;;;;;;4999023;28;19932;-77
2024/03/26 09:28:18;;;;;;;;;;;10.10;99.90;;;;;;4997106;28;20016;-77
2024/03/26 09:30:46;;;;;;;;;;;10.20;99.90;;;;;;5031789;28;20000;-75
2024/03/26 09:33:12;;;;;;;;;;;10.30;99.90;;;;;;5014660;28;20673;-77
2024/03/26 09:35:37;;;;;;;;;;;10.50;99.90;;;;;;5017895;28;19914;-77
2024/03/26 09:38:03;;;;;;;;;;;10.60;99.90;;;;;;4983227;28;19925;-75
2024/03/26 09:40:33;;;;;;;;;;;10.80;99.90;;;;;;5024617;28;20380;-77
2024/03/26 09:43:00;;;;;;;;;;;10.90;99.90;;;;;;5015419;28;19914;-76
2024/03/26 09:45:26;;;;;;;;;;;11.10;99.90;;;;;;5009075;28;19918;-75
2024/03/26 09:47:51;;;;;;;;;;;11.20;99.90;;;;;;4997229;28;19925;-75
2024/03/26 09:50:19;;;;;;;;;;;11.20;99.90;;;;;;5026305;28;19925;-76
2024/03/26 09:52:45;;;;;;;;;;;11.10;99.90;;;;;;5025838;28;20401;-77
2024/03/26 09:55:13;;;;;;;;;;;11.00;99.90;;;;;;5031570;28;19922;-76
2024/03/26 09:57:43;;;;;;;;;;;10.80;99.90;;;;;;5034147;28;19918;-77
2024/03/26 10:00:11;;;;;;;;;;;10.70;99.90;;;;;;4999259;28;19921;-76
2024/03/26 10:02:37;;;;;;;;;;;10.70;99.90;;;;;;4999594;28;19927;-75
2024/03/26 10:05:06;;;;;;;;;;;10.70;99.90;;;;;;5002104;28;19956;-77
2024/03/26 10:07:32;;;;;;;;;;;10.50;99.90;;;;;;4999577;28;19921;-77
2024/03/26 10:10:01;;;;;;;;;;;10.50;99.90;;;;;;5017910;28;20296;-77
2024/03/26 10:12:27;;;;;;;;;;;10.50;99.90;;;;;;5011158;28;19916;-76
2024/03/26 10:14:53;;;;;;;;;;;10.50;99.90;;;;;;4993371;28;19917;-75
2024/03/26 10:17:19;;;;;;;;;;;10.60;99.90;;;;;;5012409;28;19917;-75
2024/03/26 10:19:46;;;;;;;;;;;10.60;99.90;;;;;;5010096;28;20545;-76
2024/03/26 10:22:15;;;;;;;;;;;10.70;99.90;;;;;;4999484;28;19922;-77
2024/03/26 10:24:42;;;;;;;;;;;10.80;99.90;;;;;;5014486;28;19920;-77
2024/03/26 10:27:08;;;;;;;;;;;10.90;99.90;;;;;;5019513;28;20630;-75
2024/03/26 10:29:36;;;;;;;;;;;10.90;99.90;;;;;;5020410;28;19964;-76
2024/03/26 10:32:03;;;;;;;;;;;11.00;99.90;;;;;;5004025;28;20277;-76
2024/03/26 10:34:29;;;;;;;;;;;11.10;99.90;;;;;;4981128;28;19975;-77
2024/03/26 10:36:54;;;;;;;;;;;11.10;99.90;;;;;;4998321;28;19918;-76
2024/03/26 10:39:21;;;;;;;;;;;11.00;99.90;;;;;;5000122;28;19914;-76
2024/03/26 10:41:50;;;;;;;;;;;10.90;99.90;;;;;;4982181;28;19925;-77
2024/03/26 10:44:17;;;;;;;;;;;10.90;99.90;;;;;;5015061;28;20261;-76
2024/03/26 10:46:44;;;;;;;;;;;10.90;99.90;;;;;;5014750;28;20401;-78
2024/03/26 10:49:10;;;;;;;;;;;10.90;99.90;;;;;;4980932;28;19975;-76
2024/03/26 10:51:36;;;;;;;;;;;10.90;99.90;;;;;;4997655;28;20223;-76
2024/03/26 10:54:01;;;;;;;;;;;10.90;99.90;;;;;;5014078;28;19928;-76
2024/03/26 10:56:30;;;;;;;;;;;11.00;99.90;;;;;;5014096;28;20834;-76
2024/03/26 10:58:57;;;;;;;;;;;10.80;99.90;;;;;;5005954;28;19918;-76
2024/03/26 11:01:23;;;;;;;;;;;10.90;99.90;;;;;;4988110;28;20020;-77
2024/03/26 11:03:49;;;;;;;;;;;10.90;99.90;;;;;;5002199;28;20008;-76
2024/03/26 11:06:18;;;;;;;;;;;10.90;99.90;;;;;;5007821;28;20460;-76
2024/03/26 11:08:45;;;;;;;;;;;10.80;99.90;;;;;;5016535;28;19914;-76
2024/03/26 11:11:12;;;;;;;;;;;10.80;99.90;;;;;;5031910;28;20796;-76
2024/03/26 11:13:39;;;;;;;;;;;10.80;99.90;;;;;;5015104;28;20373;-76
2024/03/26 11:16:05;;;;;;;;;;;10.80;99.90;;;;;;5033360;28;19925;-76
2024/03/26 11:18:34;;;;;;;;;;;10.80;99.90;;;;;;5015958;28;21200;-76
2024/03/26 11:21:07;;;;;;;;;;;10.90;99.90;;;;;;5033047;28;19921;-76
2024/03/26 11:23:34;;;;;;;;;;;10.90;99.90;;;;;;5032374;28;19917;-76
2024/03/26 11:25:59;;;;;;;;;;;11.00;99.90;;;;;;5015392;28;19921;-76
2024/03/26 11:28:31;;;;;;;;;;;11.00;99.90;;;;;;5034323;28;20227;-76
2024/03/26 11:30:57;;;;;;;;;;;11.10;99.90;;;;;;5013856;28;19917;-76
2024/03/26 11:33:23;;;;;;;;;;;11.20;99.90;;;;;;5016663;28;19960;-76
2024/03/26 11:35:49;;;;;;;;;;;11.20;99.90;;;;;;5020643;28;19921;-76
2024/03/26 11:38:15;;;;;;;;;;;11.20;99.90;;;;;;5054073;28;19913;-76
2024/03/26 11:40:41;;;;;;;;;;;11.30;99.90;;;;;;5037431;28;20276;-77
2024/03/26 11:43:06;;;;;;;;;;;11.50;99.90;;;;;;5036348;28;19917;-77
2024/03/26 11:45:32;;;;;;;;;;;11.70;99.90;;;;;;5035295;28;19939;-79
2024/03/26 11:47:58;;;;;;;;;;;11.70;99.90;;;;;;5032425;28;20016;-79
2024/03/26 11:50:23;;;;;;;;;;;11.80;99.90;;;;;;5036984;28;19917;-79
2024/03/26 11:52:49;;;;;;;;;;;11.80;99.90;;;;;;5036946;28;19971;-79
2024/03/26 11:55:14;;;;;;;;;;;11.90;99.90;;;;;;5038149;28;20299;-80
2024/03/26 11:57:41;;;;;;;;;;;11.90;99.90;;;;;;5036754;28;19959;-79
2024/03/26 12:00:07;;;;;;;;;;;11.80;99.90;;;;;;5037148;28;19913;-79
2024/03/26 12:02:33;;;;;;;;;;;11.80;99.90;;;;;;5037651;28;19933;-79
2024/03/26 12:05:16;;;;;;;;;;;11.70;99.90;;;;;;5037067;28;20010;-80
2024/03/26 12:07:42;;;;;;;;;;;11.70;99.90;;;;;;5037218;28;20326;-79
2024/03/26 12:10:11;;;;;;;;;;;11.70;99.90;;;;;;5035368;28;19999;-79
2024/03/26 12:12:38;;;;;;;;;;;11.60;99.90;;;;;;5020386;28;19960;-80
2024/03/26 12:15:07;;;;;;;;;;;11.60;99.90;;;;;;5036770;28;19917;-79
2024/03/26 12:17:33;;;;;;;;;;;11.60;99.90;;;;;;5036741;28;20230;-79
2024/03/26 12:19:59;;;;;;;;;;;11.60;99.90;;;;;;5003226;28;19925;-79
2024/03/26 12:22:26;;;;;;;;;;;11.50;99.90;;;;;;5003094;28;20617;-79
2024/03/26 12:24:51;;;;;;;;;;;11.50;99.90;;;;;;5014462;28;20007;-79
2024/03/26 12:27:17;;;;;;;;;;;11.50;99.90;;;;;;5025533;28;19917;-79
2024/03/26 12:29:44;;;;;;;;;;;11.50;99.90;;;;;;5020105;28;19924;-79
2024/03/26 12:32:10;;;;;;;;;;;11.50;99.90;;;;;;5003678;28;20020;-80
2024/03/26 12:34:36;;;;;;;;;;;11.50;99.90;;;;;;5015802;28;20346;-79
2024/03/26 12:37:02;;;;;;;;;;;11.50;99.90;;;;;;5019504;28;20080;-80
2024/03/26 12:39:29;;;;;;;;;;;11.50;99.90;;;;;;5035753;28;19923;-79
2024/03/26 12:41:55;;;;;;;;;;;11.50;99.90;;;;;;5031328;28;20306;-79
2024/03/26 12:44:20;;;;;;;;;;;11.50;99.90;;;;;;5036907;28;19920;-79
2024/03/26 12:46:46;;;;;;;;;;;11.40;99.90;;;;;;5028803;28;19913;-79
2024/03/26 12:49:12;;;;;;;;;;;11.30;99.90;;;;;;5036305;28;19921;-79
2024/03/26 12:51:38;;;;;;;;;;;11.40;99.90;;;;;;4986459;28;19952;-79
2024/03/26 12:54:04;;;;;;;;;;;11.20;99.90;;;;;;5018698;28;19971;-79
2024/03/26 12:56:33;;;;;;;;;;;11.30;99.90;;;;;;5002519;28;19913;-80
2024/03/26 12:58:59;;;;;;;;;;;11.20;99.90;;;;;;5001992;28;20468;-80
2024/03/26 13:01:25;;;;;;;;;;;11.20;99.90;;;;;;5002936;28;20004;-79
2024/03/26 13:03:51;;;;;;;;;;;11.20;99.90;;;;;;5019089;28;19924;-79
2024/03/26 13:06:17;;;;;;;;;;;11.20;99.90;;;;;;4981373;28;19918;-79
2024/03/26 13:08:42;;;;;;;;;;;11.10;99.90;;;;;;5009166;28;19922;-79
2024/03/26 13:11:11;;;;;;;;;;;11.10;99.90;;;;;;5025066;28;19969;-79
2024/03/26 13:13:43;;;;;;;;;;;11.20;99.90;;;;;;5018900;28;19913;-79
2024/03/26 13:16:08;;;;;;;;;;;11.20;99.90;;;;;;5002251;28;19924;-77
2024/03/26 13:18:35;;;;;;;;;;;11.20;99.90;;;;;;5018195;28;19917;-77
2024/03/26 13:21:01;;;;;;;;;;;11.20;99.90;;;;;;5018031;28;19917;-77
2024/03/26 13:23:27;;;;;;;;;;;11.20;99.90;;;;;;5018401;28;19917;-77
2024/03/26 13:25:53;;;;;;;;;;;11.10;99.90;;;;;;5020497;28;20449;-77
2024/03/26 13:28:18;;;;;;;;;;;11.10;99.90;;;;;;5031729;28;20003;-77
2024/03/26 13:30:44;;;;;;;;;;;11.10;99.90;;;;;;5034364;28;20040;-77
2024/03/26 13:33:10;;;;;;;;;;;11.10;99.90;;;;;;5018151;28;19913;-77
2024/03/26 13:35:36;;;;;;;;;;;11.10;99.90;;;;;;5051155;28;19921;-77
2024/03/26 13:38:03;;;;;;;;;;;11.10;99.90;;;;;;5034380;28;20314;-77
2024/03/26 13:40:28;;;;;;;;;;;11.10;99.90;;;;;;5017888;28;19928;-77
2024/03/26 13:42:54;;;;;;;;;;;11.10;99.90;;;;;;5031091;28;19917;-75
2024/03/26 13:45:20;;;;;;;;;;;11.10;99.90;;;;;;5030067;28;19924;-77
2024/03/26 13:47:46;;;;;;;;;;;11.20;99.90;;;;;;5031753;28;19917;-77
2024/03/26 13:50:13;;;;;;;;;;;11.20;99.90;;;;;;5017888;28;19925;-77
2024/03/26 13:52:38;;;;;;;;;;;11.20;99.90;;;;;;5016757;28;20485;-76
2024/03/26 13:55:05;;;;;;;;;;;11.20;99.90;;;;;;5036143;28;19918;-76
2024/03/26 13:57:31;;;;;;;;;;;11.20;99.90;;;;;;5033982;28;20234;-77
2024/03/26 13:59:56;;;;;;;;;;;11.30;99.90;;;;;;5001242;28;19928;-76
2024/03/26 14:02:22;;;;;;;;;;;11.30;99.90;;;;;;5014806;28;19925;-76
2024/03/26 14:04:47;;;;;;;;;;;11.30;99.90;;;;;;5030643;28;19930;-76
2024/03/26 14:07:13;;;;;;;;;;;11.30;99.90;;;;;;5017142;28;20215;-76
2024/03/26 14:09:40;;;;;;;;;;;11.30;99.90;;;;;;5033083;28;19971;-76
2024/03/26 14:12:10;;;;;;;;;;;11.40;99.90;;;;;;5032654;28;19924;-76
2024/03/26 14:14:36;;;;;;;;;;;11.40;99.90;;;;;;5031201;28;19917;-76
2024/03/26 14:17:01;;;;;;;;;;;11.40;99.90;;;;;;5033293;28;20074;-76
2024/03/26 14:19:27;;;;;;;;;;;11.40;99.90;;;;;;5033516;28;19986;-76